createdAt,value
2018-12-01T00:00:36.956Z,20.90
2018-12-01T00:03:06.233Z,20.90
2018-12-01T00:05:35.754Z,22.90
2018-12-01T00:08:04.746Z,21.73
2018-12-01T00:10:33.943Z,21.37
2018-12-01T00:13:03.032Z,22.80
2018-12-01T00:15:33.024Z,21.83
2018-12-01T00:18:02.303Z,22.50
2018-12-01T00:20:33.949Z,24.20
2018-12-01T00:23:03.615Z,21.70
2018-12-01T00:25:32.724Z,22.27
2018-12-01T00:28:02.023Z,23.43
2018-12-01T00:30:32.001Z,24.07
2018-12-01T00:33:01.469Z,22.30
2018-12-01T00:35:30.633Z,20.63
2018-12-01T00:37:59.918Z,20.87
2018-12-01T00:40:31.720Z,20.00
2018-12-01T00:43:00.792Z,21.80
2018-12-01T00:45:30.052Z,22.13
2018-12-01T00:47:59.334Z,21.53
2018-12-01T00:50:32.704Z,21.03
2018-12-01T00:53:02.254Z,21.37
2018-12-01T00:55:31.598Z,20.50
2018-12-01T00:58:01.107Z,21.83
2018-12-01T01:00:30.565Z,22.10
2018-12-01T01:03:01.079Z,20.60
2018-12-01T01:05:31.995Z,19.50
2018-12-01T01:08:02.106Z,20.10
2018-12-01T01:10:35.111Z,18.73
2018-12-01T01:13:10.424Z,21.33
2018-12-01T01:15:42.451Z,20.87
2018-12-01T01:18:14.069Z,19.07
2018-12-01T01:20:45.007Z,18.63
2018-12-01T01:23:17.008Z,20.30
2018-12-01T01:25:48.104Z,18.23
2018-12-01T01:28:19.781Z,22.93
2018-12-01T01:30:53.041Z,20.17
2018-12-01T01:33:31.129Z,21.40
2018-12-01T01:36:10.570Z,20.57
2018-12-01T01:38:42.046Z,19.93
2018-12-01T01:41:12.750Z,20.30
2018-12-01T01:43:44.209Z,19.27
2018-12-01T01:46:15.426Z,18.93
2018-12-01T01:48:47.384Z,18.70
2018-12-01T01:51:20.134Z,19.43
2018-12-01T01:53:52.476Z,21.70
2018-12-01T01:56:24.056Z,21.17
2018-12-01T01:58:56.777Z,19.07
2018-12-01T02:01:27.779Z,19.90
2018-12-01T02:03:58.570Z,22.10
2018-12-01T02:06:28.392Z,19.93
2018-12-01T02:08:59.654Z,18.27
2018-12-01T02:11:29.865Z,21.07
2018-12-01T02:13:59.659Z,21.43
2018-12-01T02:16:29.287Z,18.90
2018-12-01T02:19:00.535Z,17.70
2018-12-01T02:21:29.475Z,19.73
2018-12-01T02:23:58.748Z,19.80
2018-12-01T02:26:31.757Z,18.40
2018-12-01T02:29:02.175Z,20.07
2018-12-01T02:31:31.721Z,20.53
2018-12-01T02:34:01.191Z,18.93
2018-12-01T02:36:30.888Z,18.80
2018-12-01T02:39:00.656Z,20.00
2018-12-01T02:41:30.110Z,19.13
2018-12-01T02:44:12.304Z,17.80
2018-12-01T02:46:52.358Z,19.10
2018-12-01T02:49:21.945Z,19.07
2018-12-01T02:51:50.967Z,19.87
2018-12-01T02:54:20.226Z,19.40
2018-12-01T02:56:49.299Z,20.20
2018-12-01T02:59:18.548Z,19.90
2018-12-01T03:01:47.902Z,21.00
2018-12-01T03:04:17.289Z,19.50
2018-12-01T03:06:46.383Z,20.57
2018-12-01T03:09:15.719Z,21.70
2018-12-01T03:11:44.911Z,21.40
2018-12-01T03:14:14.112Z,21.50
2018-12-01T03:16:43.250Z,20.97
2018-12-01T03:19:12.652Z,21.57
2018-12-01T03:21:43.248Z,20.73
2018-12-01T03:24:12.585Z,20.07
2018-12-01T03:26:41.843Z,21.80
2018-12-01T03:29:11.481Z,21.17
2018-12-01T03:31:40.423Z,20.47
2018-12-01T03:34:09.412Z,19.70
2018-12-01T03:36:38.688Z,19.97
2018-12-01T03:39:09.731Z,21.30
2018-12-01T03:41:40.455Z,20.67
2018-12-01T03:44:09.473Z,21.60
2018-12-01T03:46:38.347Z,21.63
2018-12-01T03:49:17.298Z,20.47
2018-12-01T03:51:46.274Z,19.70
2018-12-01T03:54:15.097Z,21.50
2018-12-01T03:56:51.628Z,20.00
2018-12-01T03:59:20.874Z,19.70
2018-12-01T04:01:50.188Z,22.60
2018-12-01T04:04:19.361Z,22.27
2018-12-01T04:06:48.678Z,21.30
2018-12-01T04:09:21.857Z,23.37
2018-12-01T04:11:50.856Z,20.97
2018-12-01T04:14:19.544Z,19.50
2018-12-01T04:16:48.477Z,19.70
2018-12-01T04:19:17.317Z,22.70
2018-12-01T04:21:46.049Z,20.83
2018-12-01T04:24:14.749Z,19.60
2018-12-01T04:26:45.722Z,21.03
2018-12-01T04:29:16.680Z,20.30
2018-12-01T04:31:50.155Z,18.80
2018-12-01T04:34:22.206Z,18.90
2018-12-01T04:36:51.621Z,20.97
2018-12-01T04:39:20.807Z,22.37
2018-12-01T04:41:50.357Z,22.73
2018-12-01T04:44:19.793Z,20.53
2018-12-01T04:46:49.295Z,18.70
2018-12-01T04:49:19.152Z,20.13
2018-12-01T05:00:14.207Z,22.17
2018-12-01T05:02:43.655Z,19.70
2018-12-01T05:05:18.059Z,22.80
2018-12-01T05:07:48.124Z,21.47
2018-12-01T05:10:18.874Z,22.93
2018-12-01T05:12:47.755Z,22.30
2018-12-01T05:15:18.010Z,22.53
2018-12-01T05:17:47.475Z,24.80
2018-12-01T05:20:23.299Z,25.30
2018-12-01T05:22:57.312Z,28.50
2018-12-01T05:25:26.450Z,26.20
2018-12-01T05:27:59.409Z,25.67
2018-12-01T05:30:28.516Z,28.47
2018-12-01T05:32:57.932Z,29.53
2018-12-01T05:35:27.264Z,28.90
2018-12-01T05:37:56.693Z,31.73
2018-12-01T05:40:26.882Z,30.47
2018-12-01T05:42:56.394Z,31.50
2018-12-01T05:45:25.429Z,29.27
2018-12-01T05:47:54.792Z,30.53
2018-12-01T05:50:24.862Z,27.93
2018-12-01T05:52:58.343Z,29.67
2018-12-01T05:55:27.869Z,25.73
2018-12-01T05:57:56.934Z,29.70
2018-12-01T06:00:27.304Z,29.97
2018-12-01T06:02:57.055Z,23.13
2018-12-01T06:05:27.282Z,26.07
2018-12-01T06:07:57.000Z,25.23
2018-12-01T06:10:26.219Z,23.03
2018-12-01T06:12:59.181Z,23.67
2018-12-01T06:15:28.309Z,24.97
2018-12-01T06:17:57.860Z,26.77
2018-12-01T06:20:27.035Z,26.90
2018-12-01T06:22:56.254Z,24.50
2018-12-01T06:25:25.652Z,22.60
2018-12-01T06:27:55.347Z,23.50
2018-12-01T06:30:24.697Z,25.13
2018-12-01T06:32:53.834Z,22.23
2018-12-01T06:35:30.564Z,22.10
2018-12-01T06:37:59.587Z,19.73
2018-12-01T06:40:29.010Z,23.60
2018-12-01T06:43:14.609Z,18.70
2018-12-01T06:45:43.692Z,19.87
2018-12-01T06:48:13.165Z,19.37
2018-12-01T06:50:42.688Z,27.00
2018-12-01T06:53:12.712Z,21.70
2018-12-01T06:55:44.161Z,19.27
2018-12-01T06:58:15.890Z,17.33
2018-12-01T07:00:44.973Z,18.13
2018-12-01T07:03:14.670Z,17.10
2018-12-01T07:05:45.526Z,17.70
2018-12-01T07:08:19.862Z,19.30
2018-12-01T07:10:49.142Z,18.90
2018-12-01T07:13:18.752Z,18.00
2018-12-01T07:15:48.615Z,16.47
2018-12-01T07:18:32.919Z,18.70
2018-12-01T07:21:02.170Z,20.20
2018-12-01T07:23:31.333Z,33.80
2018-12-01T07:26:00.643Z,27.73
2018-12-01T07:28:31.530Z,21.63
2018-12-01T07:31:00.435Z,17.33
2018-12-01T07:33:30.068Z,19.90
2018-12-01T07:35:59.321Z,19.43
2018-12-01T07:38:32.942Z,31.23
2018-12-01T07:41:01.946Z,24.40
2018-12-01T07:43:31.003Z,26.97
2018-12-01T07:46:13.655Z,26.67
2018-12-01T07:48:43.209Z,25.23
2018-12-01T07:51:12.470Z,19.63
2018-12-01T07:53:41.441Z,23.10
2018-12-01T07:56:10.705Z,43.07
2018-12-01T07:58:40.149Z,58.87
2018-12-01T08:01:09.650Z,63.20
2018-12-01T08:03:39.088Z,75.00
2018-12-01T08:06:08.312Z,64.47
2018-12-01T08:08:37.848Z,65.20
2018-12-01T08:11:20.139Z,56.27
2018-12-01T08:13:49.401Z,43.50
2018-12-01T08:16:19.033Z,38.60
2018-12-01T08:18:49.272Z,33.13
2018-12-01T08:21:18.883Z,44.70
2018-12-01T08:23:48.753Z,66.67
2018-12-01T08:26:18.214Z,65.80
2018-12-01T08:28:47.757Z,64.60
2018-12-01T08:31:17.785Z,79.23
2018-12-01T08:33:47.414Z,71.77
2018-12-01T08:36:22.897Z,38.33
2018-12-01T08:38:52.339Z,22.90
2018-12-01T08:41:23.105Z,20.80
2018-12-01T08:43:53.817Z,20.87
2018-12-01T08:46:29.443Z,20.07
2018-12-01T08:48:58.600Z,19.57
2018-12-01T08:51:27.712Z,19.50
2018-12-01T08:53:57.110Z,25.77
2018-12-01T08:56:26.830Z,33.80
2018-12-01T08:58:56.255Z,50.37
2018-12-01T09:01:25.424Z,45.50
2018-12-01T09:03:54.587Z,46.87
2018-12-01T09:06:24.125Z,48.97
2018-12-01T09:08:53.877Z,44.20
2018-12-01T09:11:23.036Z,38.43
2018-12-01T09:14:11.090Z,42.50
2018-12-01T09:16:40.767Z,52.60
2018-12-01T09:19:10.219Z,57.70
2018-12-01T09:21:39.510Z,59.33
2018-12-01T09:24:08.849Z,58.93
2018-12-01T09:26:38.098Z,63.73
2018-12-01T09:29:07.518Z,74.90
2018-12-01T09:31:49.480Z,69.00
2018-12-01T09:34:18.803Z,66.30
2018-12-01T09:36:48.166Z,52.17
2018-12-01T09:39:21.025Z,40.97
2018-12-01T09:41:50.210Z,40.07
2018-12-01T09:44:19.343Z,32.07
2018-12-01T09:46:49.353Z,21.03
2018-12-01T09:49:17.884Z,17.57
2018-12-01T09:51:46.453Z,14.00
2018-12-01T09:54:16.053Z,14.07
2018-12-01T09:56:44.519Z,14.47
2018-12-01T09:59:13.017Z,12.83
2018-12-01T10:01:49.204Z,12.23
2018-12-01T10:04:17.943Z,13.00
2018-12-01T10:06:47.381Z,12.43
2018-12-01T10:09:18.104Z,12.03
2018-12-01T10:11:50.919Z,13.53
2018-12-01T10:14:19.410Z,12.47
2018-12-01T10:16:48.135Z,12.37
2018-12-01T10:19:17.906Z,12.20
2018-12-01T10:21:49.083Z,13.13
2018-12-01T10:24:18.114Z,12.90
2018-12-01T10:26:47.723Z,12.37
2018-12-01T10:29:18.037Z,11.20
2018-12-01T10:31:47.161Z,11.20
2018-12-01T10:34:16.915Z,11.03
2018-12-01T10:36:47.496Z,10.97
2018-12-01T10:39:17.103Z,14.43
2018-12-01T10:41:46.270Z,8.87
2018-12-01T10:44:34.528Z,7.27
2018-12-01T10:47:03.101Z,8.10
2018-12-01T10:49:31.611Z,8.23
2018-12-01T10:52:05.893Z,7.40
2018-12-01T10:54:34.384Z,6.90
2018-12-01T10:57:03.020Z,6.73
2018-12-01T10:59:31.577Z,9.07
2018-12-01T11:02:05.580Z,7.83
2018-12-01T11:04:38.386Z,8.27
2018-12-01T11:07:07.240Z,7.77
2018-12-01T11:09:38.903Z,8.03
2018-12-01T11:12:07.410Z,8.13
2018-12-01T11:14:35.915Z,8.80
2018-12-01T11:17:04.492Z,8.40
2018-12-01T11:19:34.484Z,8.13
2018-12-01T11:22:05.231Z,10.17
2018-12-01T11:24:34.519Z,8.63
2018-12-01T11:27:03.988Z,8.27
2018-12-01T11:29:33.648Z,8.57
2018-12-01T11:32:03.091Z,7.90
2018-12-01T11:34:32.877Z,8.20
2018-12-01T11:37:02.025Z,9.23
2018-12-01T11:39:31.108Z,8.90
2018-12-01T11:41:59.993Z,9.53
2018-12-01T11:44:30.067Z,10.57
2018-12-01T11:47:00.263Z,9.70
2018-12-01T11:49:29.928Z,9.33
2018-12-01T11:51:58.635Z,7.57
2018-12-01T11:54:27.317Z,7.20
2018-12-01T11:56:56.768Z,7.70
2018-12-01T11:59:25.388Z,6.43
2018-12-01T12:01:54.278Z,6.57
2018-12-01T12:04:22.883Z,7.03
2018-12-01T12:06:51.547Z,6.93
2018-12-01T12:09:20.093Z,6.77
2018-12-01T12:11:48.773Z,4.90
2018-12-01T12:14:17.446Z,6.43
2018-12-01T12:16:46.020Z,5.60
2018-12-01T12:19:14.641Z,6.43
2018-12-01T12:21:43.848Z,4.87
2018-12-01T12:24:12.704Z,5.20
2018-12-01T12:26:41.255Z,5.53
2018-12-01T12:29:09.854Z,4.90
2018-12-01T12:31:44.539Z,6.20
2018-12-01T12:34:13.044Z,5.70
2018-12-01T12:36:41.595Z,6.40
2018-12-01T12:39:10.115Z,6.10
2018-12-01T12:41:45.041Z,5.77
2018-12-01T12:44:13.601Z,5.37
2018-12-01T12:46:42.357Z,5.90
2018-12-01T12:49:10.912Z,6.57
2018-12-01T12:51:39.454Z,5.47
2018-12-01T12:54:08.166Z,6.10
2018-12-01T12:56:36.931Z,5.70
2018-12-01T12:59:05.847Z,5.47
2018-12-01T13:01:34.469Z,6.00
2018-12-01T13:04:02.915Z,6.60
2018-12-01T13:06:31.849Z,6.03
2018-12-01T13:09:00.512Z,6.57
2018-12-01T13:11:29.242Z,5.87
2018-12-01T13:13:57.827Z,6.03
2018-12-01T13:16:26.452Z,5.97
2018-12-01T13:18:55.202Z,6.37
2018-12-01T13:21:24.059Z,5.57
2018-12-01T13:23:52.707Z,6.40
2018-12-01T13:26:22.030Z,6.07
2018-12-01T13:28:51.138Z,5.77
2018-12-01T13:31:19.840Z,5.80
2018-12-01T13:33:48.452Z,5.77
2018-12-01T13:36:16.956Z,5.30
2018-12-01T13:38:45.525Z,6.57
2018-12-01T13:41:14.213Z,6.77
2018-12-01T13:43:43.195Z,6.30
2018-12-01T13:46:12.257Z,6.30
2018-12-01T13:48:41.138Z,7.00
2018-12-01T13:51:10.046Z,6.90
2018-12-01T13:53:38.697Z,6.50
2018-12-01T13:56:07.408Z,6.70
2018-12-01T13:58:36.051Z,6.80
2018-12-01T14:01:05.173Z,7.00
2018-12-01T14:03:33.683Z,7.40
2018-12-01T14:06:03.352Z,6.87
2018-12-01T14:08:32.460Z,7.83
2018-12-01T14:11:01.305Z,7.37
2018-12-01T14:13:30.259Z,8.20
2018-12-01T14:15:59.481Z,7.63
2018-12-01T14:18:28.481Z,7.17
2018-12-01T14:20:57.532Z,5.90
2018-12-01T14:23:26.612Z,7.70
2018-12-01T14:25:55.425Z,8.30
2018-12-01T14:28:24.674Z,7.03
2018-12-01T14:30:54.217Z,6.33
2018-12-01T14:33:23.149Z,6.80
2018-12-01T14:35:52.669Z,7.80
2018-12-01T14:38:22.198Z,6.80
2018-12-01T14:40:51.459Z,6.97
2018-12-01T14:43:20.786Z,7.50
2018-12-01T14:45:51.102Z,7.80
2018-12-01T14:48:19.820Z,7.47
2018-12-01T14:50:49.178Z,6.97
2018-12-01T14:53:19.106Z,7.50
2018-12-01T14:55:48.229Z,7.93
2018-12-01T14:58:27.043Z,8.83
2018-12-01T15:00:56.335Z,8.17
2018-12-01T15:03:25.971Z,8.43
2018-12-01T15:05:54.388Z,9.20
2018-12-01T15:08:23.642Z,9.93
2018-12-01T15:10:52.573Z,8.90
2018-12-01T15:13:21.478Z,10.00
2018-12-01T15:15:50.651Z,10.77
2018-12-01T15:18:19.799Z,8.50
2018-12-01T15:20:49.169Z,8.53
2018-12-01T15:23:18.928Z,8.80
2018-12-01T15:25:48.974Z,8.73
2018-12-01T15:28:18.138Z,9.93
2018-12-01T15:30:48.356Z,8.93
2018-12-01T15:33:17.033Z,9.03
2018-12-01T15:35:46.559Z,10.50
2018-12-01T15:38:15.541Z,10.13
2018-12-01T15:40:50.737Z,10.77
2018-12-01T15:43:19.415Z,12.77
2018-12-01T15:45:48.403Z,12.13
2018-12-01T15:48:17.051Z,12.13
2018-12-01T15:50:45.722Z,10.77
2018-12-01T15:53:15.298Z,9.90
2018-12-01T15:55:44.006Z,11.40
2018-12-01T15:58:12.728Z,12.67
2018-12-01T16:00:42.871Z,10.57
2018-12-01T16:03:11.619Z,11.47
2018-12-01T16:05:40.153Z,9.37
2018-12-01T16:08:09.856Z,9.83
2018-12-01T16:10:38.690Z,11.80
2018-12-01T16:13:12.781Z,12.80
2018-12-01T16:15:43.379Z,13.20
2018-12-01T16:18:12.086Z,13.63
2018-12-01T16:20:40.633Z,11.00
2018-12-01T16:23:09.271Z,9.50
2018-12-01T16:25:38.018Z,10.13
2018-12-01T16:28:08.092Z,10.70
2018-12-01T16:30:40.010Z,8.57
2018-12-01T16:33:10.456Z,10.30
2018-12-01T16:35:39.540Z,10.43
2018-12-01T16:38:09.745Z,10.17
2018-12-01T16:40:43.726Z,12.00
2018-12-01T16:43:13.446Z,11.53
2018-12-01T16:45:42.914Z,10.07
2018-12-01T16:48:11.752Z,9.87
2018-12-01T16:50:40.342Z,11.40
2018-12-01T16:53:10.885Z,10.80
2018-12-01T16:55:40.089Z,10.40
2018-12-01T16:58:08.592Z,10.97
2018-12-01T17:00:37.073Z,10.40
2018-12-01T17:03:06.597Z,10.40
2018-12-01T17:05:37.271Z,9.40
2018-12-01T17:08:06.496Z,11.10
2018-12-01T17:10:35.187Z,10.93
2018-12-01T17:13:04.013Z,11.70
2018-12-01T17:15:32.563Z,11.37
2018-12-01T17:18:01.094Z,11.73
2018-12-01T17:20:29.638Z,11.80
2018-12-01T17:22:58.779Z,12.17
2018-12-01T17:25:27.554Z,13.93
2018-12-01T17:27:57.691Z,15.03
2018-12-01T17:30:30.441Z,12.40
2018-12-01T17:33:00.017Z,12.80
2018-12-01T17:35:31.195Z,12.57
2018-12-01T17:38:02.167Z,11.90
2018-12-01T17:41:11.781Z,15.40
2018-12-01T17:43:56.874Z,14.53
2018-12-01T17:46:25.426Z,15.40
2018-12-01T17:48:54.004Z,13.53
2018-12-01T17:51:22.937Z,13.73
2018-12-01T17:53:55.492Z,13.17
2018-12-01T17:56:24.472Z,11.40
2018-12-01T17:58:53.033Z,13.33
2018-12-01T18:01:21.571Z,13.30
2018-12-01T18:03:50.373Z,14.27
2018-12-01T18:06:19.513Z,14.00
2018-12-01T18:08:48.739Z,17.80
2018-12-01T18:11:18.146Z,16.73
2018-12-01T18:13:47.643Z,17.23
2018-12-01T18:16:16.893Z,13.63
2018-12-01T18:18:46.458Z,14.50
2018-12-01T18:21:15.969Z,12.37
2018-12-01T18:23:45.783Z,12.50
2018-12-01T18:26:15.054Z,12.57
2018-12-01T18:28:47.840Z,14.07
2018-12-01T18:31:22.145Z,12.87
2018-12-01T18:33:55.469Z,12.30
2018-12-01T18:36:24.808Z,13.83
2018-12-01T18:38:54.546Z,12.23
2018-12-01T18:41:24.339Z,12.47
2018-12-01T18:43:54.241Z,13.17
2018-12-01T18:46:23.859Z,12.77
2018-12-01T18:48:53.130Z,12.57
2018-12-01T18:51:22.242Z,13.20
2018-12-01T18:53:51.705Z,14.47
2018-12-01T18:56:20.716Z,13.43
2018-12-01T18:58:50.297Z,14.10
2018-12-01T19:01:19.503Z,14.00
2018-12-01T19:09:28.064Z,13.60
2018-12-01T19:11:57.800Z,13.53
2018-12-01T19:14:27.090Z,13.13
2018-12-01T19:16:56.505Z,13.80
2018-12-01T19:19:26.347Z,12.50
2018-12-01T19:21:56.043Z,13.60
2018-12-01T19:24:25.350Z,13.10
2018-12-01T19:26:56.181Z,13.57
2018-12-01T19:29:25.746Z,13.50
2018-12-01T19:31:54.842Z,11.63
2018-12-01T19:34:24.550Z,11.33
2018-12-01T19:36:54.055Z,10.10
2018-12-01T19:39:23.357Z,9.40
2018-12-01T19:41:52.644Z,10.27
2018-12-01T19:44:21.932Z,9.93
2018-12-01T19:46:51.021Z,8.07
2018-12-01T19:49:20.390Z,9.10
2018-12-01T19:51:49.556Z,9.40
2018-12-01T19:54:19.039Z,8.90
2018-12-01T19:56:48.466Z,8.97
2018-12-01T19:59:18.383Z,9.50
2018-12-01T20:01:47.779Z,9.93
2018-12-01T20:04:17.402Z,10.77
2018-12-01T20:06:46.938Z,10.80
2018-12-01T20:09:17.122Z,8.87
2018-12-01T20:11:46.474Z,8.83
2018-12-01T20:14:17.300Z,8.03
2018-12-01T20:16:49.804Z,9.47
2018-12-01T20:19:19.805Z,9.07
2018-12-01T20:21:49.604Z,9.00
2018-12-01T20:24:19.215Z,10.10
2018-12-01T20:26:48.540Z,10.20
2018-12-01T20:29:18.367Z,10.43
2018-12-01T20:31:47.833Z,10.60
2018-12-01T20:34:16.962Z,9.57
2018-12-01T20:36:51.699Z,10.03
2018-12-01T20:39:27.662Z,9.47
2018-12-01T20:41:57.030Z,10.13
2018-12-01T20:44:26.454Z,10.60
2018-12-01T20:46:56.209Z,9.80
2018-12-01T20:49:25.564Z,11.27
2018-12-01T20:51:55.076Z,11.33
2018-12-01T20:54:38.120Z,12.07
2018-12-01T20:57:20.568Z,12.00
2018-12-01T20:59:50.342Z,12.30
2018-12-01T21:02:20.045Z,12.63
2018-12-01T21:04:49.567Z,12.73
2018-12-01T21:07:18.909Z,13.50
2018-12-01T21:09:48.289Z,14.07
2018-12-01T21:12:17.712Z,13.77
2018-12-01T21:14:47.543Z,13.10
2018-12-01T21:17:17.853Z,14.33
2018-12-01T21:19:47.643Z,13.77
2018-12-01T21:22:17.099Z,12.87
2018-12-01T21:24:46.140Z,15.37
2018-12-01T21:27:15.786Z,15.03
2018-12-01T21:29:46.160Z,15.53
2018-12-01T21:32:15.421Z,15.87
2018-12-01T21:34:44.930Z,16.83
2018-12-01T21:37:14.345Z,15.77
2018-12-01T21:39:44.664Z,16.97
2018-12-01T21:42:13.227Z,18.40
2018-12-01T21:44:41.823Z,16.93
2018-12-01T21:47:10.352Z,18.20
2018-12-01T21:49:38.999Z,18.77
2018-12-01T21:52:07.727Z,18.90
2018-12-01T21:54:36.259Z,17.43
2018-12-01T21:57:04.871Z,18.20
2018-12-01T21:59:33.365Z,19.80
2018-12-01T22:02:02.222Z,18.20
2018-12-01T22:04:30.702Z,18.10
2018-12-01T22:06:59.229Z,17.70
2018-12-01T22:09:27.721Z,18.47
2018-12-01T22:11:56.281Z,17.50
2018-12-01T22:14:25.086Z,17.83
2018-12-01T22:16:53.590Z,16.80
2018-12-01T22:19:22.140Z,15.40
2018-12-01T22:21:50.641Z,15.50
2018-12-01T22:24:19.140Z,14.83
2018-12-01T22:26:47.609Z,16.00
2018-12-01T22:29:16.077Z,16.90
2018-12-01T22:31:44.597Z,16.03
2018-12-01T22:34:13.625Z,16.80
2018-12-01T22:36:42.740Z,19.10
2018-12-01T22:39:11.878Z,17.70
2018-12-01T22:41:40.876Z,19.07
2018-12-01T22:44:09.436Z,20.27
2018-12-01T22:46:38.022Z,17.60
2018-12-01T22:49:06.607Z,17.07
2018-12-01T22:51:35.152Z,17.43
2018-12-01T22:54:03.929Z,17.93
2018-12-01T22:56:33.539Z,17.63
2018-12-01T22:59:02.916Z,15.70
2018-12-01T23:01:31.423Z,17.50
2018-12-01T23:04:00.065Z,17.83
2018-12-01T23:06:28.668Z,17.20
2018-12-01T23:08:57.195Z,18.03
2018-12-01T23:11:25.647Z,18.23
2018-12-01T23:13:54.679Z,17.00
2018-12-01T23:16:23.526Z,20.03
2018-12-01T23:18:52.780Z,19.27
2018-12-01T23:21:22.043Z,20.50
2018-12-01T23:23:51.169Z,18.70
2018-12-01T23:26:20.629Z,20.80
2018-12-01T23:28:49.194Z,20.20
2018-12-01T23:31:17.712Z,20.90
2018-12-01T23:33:46.244Z,19.57
2018-12-01T23:36:14.742Z,19.90
2018-12-01T23:38:43.381Z,20.43
2018-12-01T23:41:12.109Z,19.77
2018-12-01T23:43:40.781Z,21.20
2018-12-01T23:46:09.423Z,18.07
2018-12-01T23:48:38.010Z,20.60
2018-12-01T23:51:07.097Z,18.77
2018-12-01T23:53:35.645Z,18.20
2018-12-01T23:56:04.155Z,17.60
2018-12-01T23:58:32.638Z,19.10
